Time;durP1;ratioP1;P1;durP2;ratioP2;P2;SDS_P1;SDS_P2;PMS_P1;PMS_P2;Temp;Humidity;BMP_temperature;BMP_pressure;BME280_temperature;BME280_humidity;BME280_pressure;Samples;Min_cycle;Max_cycle;Signal;HPM_P1;HPM_P2
2023/06/10 00:01:08;;;;;;;0.10;0.10;;;13.50;8.20;;;;;;5012183;28;20495;-86
2023/06/10 00:03:33;;;;;;;0.30;0.30;;;13.50;99.90;;;;;;5013747;28;20046;-86
2023/06/10 00:05:59;;;;;;;10.05;0.68;;;13.50;99.90;;;;;;5012444;28;20053;-87
2023/06/10 00:08:25;;;;;;;2.05;0.45;;;13.40;99.90;;;;;;5013143;28;20061;-86
2023/06/10 00:10:51;;;;;;;0.55;0.55;;;13.40;99.90;;;;;;5015081;28;20046;-86
2023/06/10 00:13:16;;;;;;;0.20;0.20;;;13.60;99.90;;;;;;5013642;28;20125;-86
2023/06/10 00:15:42;;;;;;;0.10;0.10;;;13.30;99.90;;;;;;5014918;28;20042;-87
2023/06/10 00:18:09;;;;;;;0.30;0.30;;;13.20;99.90;;;;;;5015968;28;20132;-86
2023/06/10 00:20:37;;;;;;;0.25;0.25;;;13.20;99.90;;;;;;5017931;28;20546;-86
2023/06/10 00:23:03;;;;;;;0.30;0.28;;;13.10;99.90;;;;;;5032324;28;20038;-86
2023/06/10 00:25:29;;;;;;;0.77;0.70;;;12.90;99.90;;;;;;5034385;28;20026;-86
2023/06/10 00:27:55;;;;;;;2.90;1.60;;;13.50;99.90;;;;;;5029943;28;20045;-86
2023/06/10 00:30:21;;;;;;;1.20;0.85;;;12.90;99.90;;;;;;5032287;28;20054;-86
2023/06/10 00:32:47;;;;;;;0.00;0.00;;;14.00;99.90;;;;;;5033502;28;20037;-85
2023/06/10 00:35:12;;;;;;;2.00;1.15;;;13.90;99.90;;;;;;5049012;28;20026;-85
2023/06/10 00:37:38;;;;;;;4.32;1.30;;;14.00;99.90;;;;;;5041819;28;20036;-86
2023/06/10 00:40:05;;;;;;;3.95;0.75;;;12.80;99.90;;;;;;5048785;28;20081;-86
2023/06/10 00:42:31;;;;;;;1.13;0.88;;;12.70;99.90;;;;;;5048941;28;20048;-86
2023/06/10 00:44:56;;;;;;;1.38;0.40;;;12.70;99.90;;;;;;5032878;28;20405;-86
2023/06/10 00:47:22;;;;;;;0.70;0.43;;;12.70;99.90;;;;;;5032689;28;20028;-86
2023/06/10 00:49:50;;;;;;;0.00;0.00;;;13.00;99.90;;;;;;5031547;28;20042;-86
2023/06/10 00:52:18;;;;;;;0.52;0.52;;;13.00;99.90;;;;;;5041511;28;20050;-86
2023/06/10 00:54:44;;;;;;;0.30;0.30;;;12.60;1.00;;;;;;5015416;28;20038;-86
2023/06/10 00:57:12;;;;;;;0.00;0.00;;;12.60;1.00;;;;;;5018572;28;20492;-86
2023/06/10 00:59:40;;;;;;;0.52;0.45;;;12.40;99.90;;;;;;5017955;28;20057;-86
2023/06/10 01:02:07;;;;;;;1.20;0.77;;;12.30;99.90;;;;;;5016861;28;20052;-86
2023/06/10 01:04:33;;;;;;;3.72;0.43;;;12.20;99.90;;;;;;5014597;28;20054;-86
2023/06/10 01:07:31;;;;;;;5.68;0.65;;;10.80;99.90;;;;;;5031573;28;20046;-86
2023/06/10 01:10:15;;;;;;;0.20;0.20;;;11.80;1.00;;;;;;5031340;28;20042;-87
2023/06/10 01:12:59;;;;;;;0.28;0.28;;;11.60;99.90;;;;;;5017225;28;20106;-86
2023/06/10 01:15:25;;;;;;;0.03;0.03;;;11.90;99.90;;;;;;5015412;28;20046;-86
2023/06/10 01:18:17;;;;;;;0.28;0.15;;;11.50;1.00;;;;;;5016775;28;20485;-86
2023/06/10 01:20:44;;;;;;;0.25;0.22;;;11.50;1.00;;;;;;5015642;28;20137;-86
2023/06/10 01:23:10;;;;;;;1.05;0.22;;;11.40;1.00;;;;;;5015336;28;20140;-86
2023/06/10 01:26:02;;;;;;;0.32;0.32;;;11.30;1.00;;;;;;5016667;28;20048;-86
2023/06/10 01:28:53;;;;;;;2.55;1.02;;;11.30;99.90;;;;;;5013271;28;20058;-86
2023/06/10 01:31:33;;;;;;;2.63;1.45;;;11.20;1.00;;;;;;5019342;28;20077;-86
2023/06/10 01:34:02;;;;;;;0.93;0.45;;;11.20;1.00;;;;;;5033465;28;20065;-86
2023/06/10 01:36:28;;;;;;;0.85;0.75;;;11.20;1.00;;;;;;5017942;28;20088;-86
2023/06/10 01:38:55;;;;;;;2.72;0.73;;;11.20;12.70;;;;;;5017567;28;20102;-86
2023/06/10 01:41:22;;;;;;;0.95;0.60;;;11.20;41.50;;;;;;5032036;28;20038;-86
2023/06/10 01:43:48;;;;;;;0.00;0.00;;;11.60;1.00;;;;;;5016627;28;20061;-86
2023/06/10 01:46:15;;;;;;;1.15;0.47;;;11.10;35.90;;;;;;5016687;28;20603;-86
2023/06/10 01:48:42;;;;;;;0.00;0.00;;;11.00;52.30;;;;;;5015017;28;20073;-86
2023/06/10 01:51:07;;;;;;;0.43;0.28;;;11.00;42.80;;;;;;5016852;28;20065;-86
2023/06/10 01:53:33;;;;;;;0.00;0.00;;;11.50;20.80;;;;;;5016269;28;20416;-86
2023/06/10 01:55:59;;;;;;;1.70;0.93;;;10.90;66.70;;;;;;5014885;28;20056;-86
2023/06/10 01:58:25;;;;;;;1.10;0.95;;;10.90;59.20;;;;;;5015541;28;20049;-86
2023/06/10 02:00:51;;;;;;;0.63;0.52;;;10.90;99.90;;;;;;5015748;28;20038;-86
2023/06/10 02:03:16;;;;;;;0.40;0.32;;;10.90;99.90;;;;;;5014533;28;20136;-86
2023/06/10 02:05:42;;;;;;;6.18;0.70;;;10.80;99.90;;;;;;5014980;28;20049;-86
2023/06/10 02:08:08;;;;;;;1.02;0.47;;;11.70;99.90;;;;;;5029569;28;20058;-86
2023/06/10 02:10:34;;;;;;;0.00;0.00;;;10.70;99.90;;;;;;5030482;28;20081;-86
2023/06/10 02:13:00;;;;;;;0.00;0.00;;;12.10;99.90;;;;;;5015062;28;20049;-87
2023/06/10 02:15:26;;;;;;;0.10;0.10;;;10.70;99.90;;;;;;5015940;28;20053;-87
2023/06/10 02:17:52;;;;;;;1.30;1.20;;;10.70;99.90;;;;;;5032556;28;20049;-87
2023/06/10 02:20:18;;;;;;;0.80;0.57;;;11.70;99.90;;;;;;5013946;28;20573;-87
2023/06/10 02:22:44;;;;;;;1.05;0.45;;;10.90;99.90;;;;;;5014835;28;20046;-86
2023/06/10 02:25:10;;;;;;;1.13;0.73;;;11.00;99.90;;;;;;5013019;28;20181;-86
2023/06/10 02:27:36;;;;;;;0.15;0.15;;;11.10;99.90;;;;;;5014393;28;20042;-86
2023/06/10 02:30:01;;;;;;;0.10;0.10;;;12.40;99.90;;;;;;5012641;28;20131;-87
2023/06/10 02:32:28;;;;;;;0.00;0.00;;;11.20;99.90;;;;;;5012524;28;20373;-86
2023/06/10 02:34:54;;;;;;;0.45;0.28;;;11.30;99.90;;;;;;5013678;28;20046;-87
2023/06/10 02:37:20;;;;;;;1.75;0.60;;;12.70;99.90;;;;;;5028047;28;20054;-86
2023/06/10 02:39:46;;;;;;;1.95;1.80;;;11.30;99.90;;;;;;5013315;28;20061;-88
2023/06/10 02:42:12;;;;;;;0.10;0.10;;;11.30;99.90;;;;;;5013899;28;20808;-87
2023/06/10 02:44:38;;;;;;;0.55;0.40;;;11.30;99.90;;;;;;5012555;28;20073;-87
2023/06/10 02:47:05;;;;;;;1.30;0.68;;;11.40;99.90;;;;;;5013066;28;20038;-87
2023/06/10 02:49:30;;;;;;;1.25;0.60;;;11.50;99.90;;;;;;5013205;28;20125;-88
2023/06/10 02:51:56;;;;;;;0.28;0.28;;;11.50;99.90;;;;;;5028284;28;20049;-87
2023/06/10 02:54:26;;;;;;;1.15;0.95;;;11.50;99.90;;;;;;5012052;28;20076;-87
2023/06/10 02:56:52;;;;;;;0.38;0.22;;;11.40;99.90;;;;;;5028485;28;20088;-87
2023/06/10 02:59:19;;;;;;;1.55;0.10;;;11.30;99.90;;;;;;5028410;28;20072;-87
2023/06/10 03:01:45;;;;;;;0.65;0.38;;;11.30;99.90;;;;;;5012090;28;20050;-87
2023/06/10 03:04:13;;;;;;;0.68;0.68;;;11.90;99.90;;;;;;5013067;28;20594;-87
2023/06/10 03:06:40;;;;;;;1.77;0.20;;;12.10;99.90;;;;;;5013054;28;20085;-87
2023/06/10 03:09:09;;;;;;;0.75;0.52;;;11.10;99.90;;;;;;5028485;28;20068;-87
2023/06/10 03:11:35;;;;;;;0.40;0.17;;;11.00;99.90;;;;;;5015187;28;20081;-87
2023/06/10 03:14:01;;;;;;;0.50;0.50;;;11.00;99.90;;;;;;5013503;28;20049;-87
2023/06/10 03:16:27;;;;;;;0.65;0.65;;;11.00;99.90;;;;;;5012762;28;20141;-87
2023/06/10 03:18:53;;;;;;;1.05;0.50;;;11.50;99.90;;;;;;5011750;28;20046;-87
2023/06/10 03:21:19;;;;;;;0.35;0.30;;;11.90;99.90;;;;;;5028704;28;20088;-87
2023/06/10 03:23:45;;;;;;;0.08;0.08;;;10.90;99.90;;;;;;5013421;28;20116;-87
2023/06/10 03:26:12;;;;;;;0.63;0.63;;;11.40;99.90;;;;;;5012863;28;20053;-86
2023/06/10 03:28:38;;;;;;;0.95;0.17;;;11.60;99.90;;;;;;5012707;28;20061;-86
2023/06/10 03:31:04;;;;;;;0.10;0.10;;;10.70;99.90;;;;;;5012449;28;20046;-86
2023/06/10 03:33:29;;;;;;;0.45;0.45;;;10.70;99.90;;;;;;5010748;28;20045;-86
2023/06/10 03:35:55;;;;;;;0.75;0.50;;;10.70;99.90;;;;;;5012432;28;20046;-86
2023/06/10 03:38:21;;;;;;;0.00;0.00;;;10.60;99.90;;;;;;5013415;28;20056;-87
2023/06/10 03:40:47;;;;;;;0.00;0.00;;;10.50;99.90;;;;;;5016001;28;20041;-87
2023/06/10 03:43:13;;;;;;;1.50;0.55;;;10.50;99.90;;;;;;5014232;28;20408;-86
2023/06/10 03:45:38;;;;;;;0.10;0.10;;;11.70;99.90;;;;;;5012914;28;20046;-86
2023/06/10 03:48:06;;;;;;;0.00;0.00;;;10.50;99.90;;;;;;5012884;28;20100;-86
2023/06/10 03:50:31;;;;;;;0.20;0.20;;;10.50;99.90;;;;;;5013322;28;20137;-87
2023/06/10 03:52:58;;;;;;;0.38;0.38;;;10.70;99.90;;;;;;5012608;28;20066;-87
2023/06/10 03:55:23;;;;;;;1.15;0.95;;;11.20;99.90;;;;;;5012503;28;20128;-86
2023/06/10 03:57:50;;;;;;;0.75;0.28;;;10.70;99.90;;;;;;5033233;28;20033;-87
2023/06/10 04:00:17;;;;;;;1.55;0.90;;;10.80;99.90;;;;;;5026927;28;20053;-86
2023/06/10 04:02:45;;;;;;;0.43;0.43;;;10.90;99.90;;;;;;5023815;28;20045;-86
2023/06/10 04:05:16;;;;;;;0.05;0.05;;;11.00;99.90;;;;;;5025360;28;20119;-86
2023/06/10 04:07:42;;;;;;;0.73;0.57;;;11.10;99.90;;;;;;5025630;28;20065;-86
2023/06/10 04:10:09;;;;;;;0.80;0.73;;;11.20;99.90;;;;;;5029215;28;20045;-86
2023/06/10 04:12:35;;;;;;;2.13;0.52;;;11.20;99.90;;;;;;5022445;28;20205;-86
2023/06/10 04:15:02;;;;;;;1.77;1.10;;;11.30;99.90;;;;;;5012539;28;20050;-87
2023/06/10 04:17:27;;;;;;;0.45;0.40;;;11.40;99.90;;;;;;5013973;28;20120;-87
2023/06/10 04:19:54;;;;;;;0.28;0.28;;;12.60;99.90;;;;;;5013200;28;20085;-86
2023/06/10 04:22:20;;;;;;;0.43;0.30;;;11.60;99.90;;;;;;5012871;28;20447;-87
2023/06/10 04:24:46;;;;;;;1.92;0.35;;;12.30;99.90;;;;;;5012084;28;20057;-87
2023/06/10 04:27:12;;;;;;;2.42;0.80;;;12.00;99.90;;;;;;5013969;28;20053;-88
2023/06/10 04:29:37;;;;;;;0.85;0.75;;;12.20;99.90;;;;;;5015242;28;20050;-87
2023/06/10 04:32:05;;;;;;;1.42;0.95;;;12.40;99.90;;;;;;5016789;28;20081;-87
2023/06/10 04:34:31;;;;;;;3.22;2.03;;;12.60;99.90;;;;;;5017572;28;20085;-87
2023/06/10 04:36:57;;;;;;;0.38;0.38;;;12.90;99.90;;;;;;5017427;28;20052;-87
2023/06/10 04:39:22;;;;;;;2.95;1.02;;;13.00;99.90;;;;;;5015560;28;20136;-86
2023/06/10 04:41:48;;;;;;;0.32;0.32;;;13.00;99.90;;;;;;5017461;28;20046;-87
2023/06/10 04:44:14;;;;;;;0.13;0.10;;;13.10;99.90;;;;;;5032026;28;20101;-86
2023/06/10 04:46:40;;;;;;;0.20;0.20;;;13.10;99.90;;;;;;5016394;28;20038;-87
2023/06/10 04:49:05;;;;;;;0.00;0.00;;;14.30;99.90;;;;;;5014647;28;20046;-87
2023/06/10 04:51:31;;;;;;;0.57;0.50;;;14.40;99.90;;;;;;5015888;28;20050;-87
2023/06/10 04:53:58;;;;;;;0.55;0.47;;;14.90;93.90;;;;;;5030880;28;20060;-87
2023/06/10 04:56:25;;;;;;;1.38;0.95;;;15.60;99.90;;;;;;5016516;28;20050;-87
2023/06/10 04:58:50;;;;;;;7.22;1.02;;;16.40;5.50;;;;;;5015659;28;20041;-87
2023/06/10 05:01:16;;;;;;;0.30;0.28;;;16.70;1.00;;;;;;5016413;28;20034;-88
2023/06/10 05:03:42;;;;;;;3.67;1.25;;;17.40;99.90;;;;;;5016669;28;20045;-87
2023/06/10 05:06:07;;;;;;;0.15;0.15;;;17.60;99.90;;;;;;5017101;28;20122;-87
2023/06/10 05:08:33;;;;;;;0.20;0.20;;;17.90;99.90;;;;;;5017116;28;20062;-87
2023/06/10 05:10:59;;;;;;;0.32;0.32;;;17.90;99.90;;;;;;5016999;28;20049;-87
2023/06/10 05:13:25;;;;;;;1.25;0.95;;;17.90;99.90;;;;;;5014388;28;20049;-87
2023/06/10 05:15:51;;;;;;;0.57;0.40;;;17.90;99.90;;;;;;5016143;28;20172;-87
2023/06/10 05:18:16;;;;;;;0.20;0.10;;;18.50;99.90;;;;;;5014367;28;20766;-87
2023/06/10 05:20:42;;;;;;;0.85;0.32;;;18.80;86.60;;;;;;5016005;28;20050;-87
2023/06/10 05:23:08;;;;;;;0.20;0.20;;;18.70;43.60;;;;;;5030733;28;20124;-87
2023/06/10 05:25:33;;;;;;;0.65;0.30;;;18.10;28.70;;;;;;5012483;28;20060;-87
2023/06/10 05:27:59;;;;;;;1.23;1.13;;;19.10;10.10;;;;;;5010981;28;20064;-87
2023/06/10 05:30:26;;;;;;;11.52;1.15;;;19.40;1.00;;;;;;5010805;28;20042;-87
2023/06/10 05:32:52;;;;;;;2.85;0.60;;;18.90;1.00;;;;;;5010562;28;20050;-87
2023/06/10 05:35:18;;;;;;;3.63;1.27;;;18.80;16.60;;;;;;5009442;28;20499;-87
2023/06/10 05:37:44;;;;;;;1.05;0.65;;;19.80;1.00;;;;;;5009751;28;20046;-88
2023/06/10 05:40:10;;;;;;;0.20;0.20;;;19.50;1.00;;;;;;5010773;28;20536;-87
2023/06/10 05:42:36;;;;;;;0.00;0.00;;;19.10;1.00;;;;;;5008464;28;20054;-88
2023/06/10 05:45:02;;;;;;;0.13;0.03;;;19.40;1.00;;;;;;5010874;28;20136;-87
2023/06/10 05:47:28;;;;;;;0.73;0.30;;;20.20;1.00;;;;;;5010242;28;20046;-88
2023/06/10 05:49:54;;;;;;;1.55;0.77;;;20.20;1.00;;;;;;5011420;28;20058;-87
2023/06/10 05:52:20;;;;;;;1.13;0.85;;;20.40;1.00;;;;;;5010528;28;20153;-88
2023/06/10 05:54:46;;;;;;;0.35;0.35;;;20.10;1.00;;;;;;5010111;28;20132;-87
2023/06/10 05:57:11;;;;;;;2.13;1.52;;;21.20;1.00;;;;;;5008654;28;20049;-88
2023/06/10 05:59:37;;;;;;;1.38;1.13;;;20.90;99.90;;;;;;5008846;28;20073;-88
2023/06/10 06:02:03;;;;;;;0.80;0.63;;;21.50;99.90;;;;;;5009901;28;20077;-88
2023/06/10 06:04:29;;;;;;;0.57;0.43;;;21.70;99.90;;;;;;5010735;28;20489;-88
2023/06/10 06:06:54;;;;;;;0.20;0.17;;;21.90;99.90;;;;;;5012077;28;20045;-88
2023/06/10 06:09:20;;;;;;;1.65;0.95;;;22.30;99.90;;;;;;5015939;28;20064;-88
2023/06/10 06:11:46;;;;;;;2.45;0.50;;;22.70;99.90;;;;;;5012230;28;20111;-88
2023/06/10 06:14:11;;;;;;;0.30;0.30;;;22.80;99.90;;;;;;5008821;28;20133;-87
2023/06/10 06:16:38;;;;;;;1.55;1.02;;;22.10;99.90;;;;;;5011462;28;20606;-87
2023/06/10 06:19:03;;;;;;;1.95;0.68;;;21.80;99.90;;;;;;5012000;28;20073;-88
2023/06/10 06:21:29;;;;;;;1.00;0.57;;;21.90;99.90;;;;;;5011887;28;20481;-87
2023/06/10 06:23:54;;;;;;;1.45;0.70;;;21.60;99.90;;;;;;5011352;28;20722;-88
2023/06/10 06:26:20;;;;;;;1.13;0.63;;;20.90;99.90;;;;;;5010885;28;20049;-88
2023/06/10 06:28:46;;;;;;;4.68;1.70;;;21.30;99.90;;;;;;5011278;28;20529;-87
2023/06/10 06:31:12;;;;;;;0.47;0.47;;;21.30;99.90;;;;;;5011313;28;20046;-87
2023/06/10 06:33:37;;;;;;;3.28;1.13;;;21.20;99.90;;;;;;5025804;28;20060;-87
2023/06/10 06:36:03;;;;;;;0.55;0.50;;;21.60;99.90;;;;;;5011182;28;20124;-88
2023/06/10 06:38:28;;;;;;;1.45;0.88;;;22.30;99.90;;;;;;5010681;28;20046;-87
2023/06/10 06:40:54;;;;;;;0.22;0.22;;;22.60;99.90;;;;;;5008941;28;20052;-87
2023/06/10 06:43:20;;;;;;;0.40;0.40;;;23.00;99.90;;;;;;5009250;28;20381;-87
2023/06/10 06:45:46;;;;;;;1.63;0.47;;;24.10;99.90;;;;;;5009327;28;20124;-88
2023/06/10 06:48:12;;;;;;;0.68;0.50;;;24.00;99.90;;;;;;5010188;28;20056;-87
2023/06/10 06:50:38;;;;;;;0.00;0.00;;;23.90;99.90;;;;;;5011044;28;20050;-87
2023/06/10 06:53:04;;;;;;;0.30;0.20;;;23.40;99.90;;;;;;5011933;28;20077;-87
2023/06/10 06:55:30;;;;;;;0.60;0.60;;;24.30;99.90;;;;;;5010212;28;20459;-88
2023/06/10 06:57:55;;;;;;;0.32;0.32;;;24.90;99.90;;;;;;5008268;28;20053;-88
2023/06/10 07:00:21;;;;;;;0.32;0.30;;;25.80;99.90;;;;;;5010407;28;20046;-88
2023/06/10 07:02:47;;;;;;;1.45;0.55;;;26.80;99.90;;;;;;5009111;28;20074;-88
2023/06/10 07:05:13;;;;;;;0.52;0.45;;;26.10;99.90;;;;;;5012415;28;20073;-88
2023/06/10 07:07:39;;;;;;;1.13;0.80;;;25.70;99.90;;;;;;5008517;28;20057;-88
2023/06/10 07:10:05;;;;;;;3.83;1.08;;;26.00;99.90;;;;;;5008964;28;20068;-87
2023/06/10 07:12:31;;;;;;;1.00;0.55;;;25.70;99.90;;;;;;5008449;28;20049;-87
2023/06/10 07:14:56;;;;;;;3.30;0.82;;;25.70;99.90;;;;;;5007386;28;20187;-88
2023/06/10 07:17:22;;;;;;;1.60;0.52;;;25.30;99.90;;;;;;5008827;28;20049;-88
2023/06/10 07:19:47;;;;;;;0.32;0.30;;;25.20;99.90;;;;;;5009807;28;20054;-87
2023/06/10 07:22:14;;;;;;;1.55;0.90;;;25.20;99.90;;;;;;5008737;28;20057;-88
2023/06/10 07:24:40;;;;;;;1.25;0.80;;;26.90;99.90;;;;;;5007009;28;20099;-87
2023/06/10 07:27:06;;;;;;;0.52;0.40;;;26.90;99.90;;;;;;5008514;28;20132;-88
2023/06/10 07:29:32;;;;;;;1.45;0.47;;;26.60;99.90;;;;;;5008159;28;20046;-88
2023/06/10 07:31:58;;;;;;;2.97;1.10;;;26.70;99.90;;;;;;5008093;28;20056;-88
2023/06/10 07:34:24;;;;;;;1.27;0.88;;;26.30;99.90;;;;;;5008242;28;20092;-88
2023/06/10 07:36:49;;;;;;;0.75;0.35;;;27.50;99.90;;;;;;5006723;28;20050;-88
2023/06/10 07:39:15;;;;;;;0.35;0.20;;;27.80;99.90;;;;;;5007855;28;20056;-88
2023/06/10 07:41:41;;;;;;;11.70;1.08;;;27.40;99.90;;;;;;5006138;28;20081;-88
2023/06/10 07:44:06;;;;;;;0.70;0.57;;;27.60;99.90;;;;;;5007244;28;20067;-87
2023/06/10 07:46:32;;;;;;;1.00;0.52;;;27.30;99.90;;;;;;5007343;28;20049;-88
2023/06/10 07:48:58;;;;;;;0.68;0.57;;;26.60;99.90;;;;;;5007655;28;20081;-88
2023/06/10 07:51:23;;;;;;;0.13;0.13;;;26.90;99.90;;;;;;5007467;28;20057;-88
2023/06/10 07:53:49;;;;;;;2.85;0.68;;;26.90;99.90;;;;;;5007923;28;20050;-88
2023/06/10 07:56:15;;;;;;;1.65;0.65;;;27.20;99.90;;;;;;5006090;28;20050;-88
2023/06/10 07:58:40;;;;;;;0.28;0.28;;;26.60;99.90;;;;;;5007700;28;20056;-87
2023/06/10 08:01:07;;;;;;;1.35;0.90;;;26.50;99.90;;;;;;5005889;28;20096;-88
2023/06/10 08:03:32;;;;;;;1.70;1.05;;;27.20;99.90;;;;;;5022876;28;20056;-87
2023/06/10 08:05:58;;;;;;;4.15;1.52;;;27.10;99.90;;;;;;5007083;28;20069;-87
2023/06/10 08:08:24;;;;;;;0.32;0.32;;;27.20;99.90;;;;;;5007350;28;20132;-88
2023/06/10 08:10:49;;;;;;;0.10;0.10;;;27.40;99.90;;;;;;5007766;28;20049;-87
2023/06/10 08:13:15;;;;;;;2.85;0.52;;;26.40;99.90;;;;;;5007173;28;20119;-88
2023/06/10 08:15:40;;;;;;;0.80;0.40;;;27.90;99.90;;;;;;5006921;28;20046;-87
2023/06/10 08:18:06;;;;;;;0.65;0.32;;;29.20;99.90;;;;;;5007606;28;20551;-87
2023/06/10 08:20:32;;;;;;;2.80;0.80;;;29.70;99.90;;;;;;5007417;28;20085;-87
2023/06/10 08:22:57;;;;;;;2.45;1.38;;;29.40;99.90;;;;;;5008210;28;20042;-88
2023/06/10 08:25:23;;;;;;;2.05;1.05;;;29.20;99.90;;;;;;5005678;28;20519;-88
2023/06/10 08:27:50;;;;;;;0.45;0.35;;;28.70;99.90;;;;;;5007441;28;20046;-88
2023/06/10 08:30:16;;;;;;;1.20;1.05;;;27.70;99.90;;;;;;5006043;28;20093;-87
2023/06/10 08:32:59;;;;;;;0.55;0.50;;;27.50;99.90;;;;;;5007150;28;20084;-88
2023/06/10 08:35:25;;;;;;;0.45;0.17;;;27.70;99.90;;;;;;5006850;28;20591;-87
2023/06/10 08:37:51;;;;;;;0.25;0.25;;;28.00;99.90;;;;;;5007013;28;20129;-87
2023/06/10 08:40:17;;;;;;;2.30;1.45;;;28.80;99.90;;;;;;5007054;28;20046;-88
2023/06/10 08:42:45;;;;;;;0.52;0.38;;;29.10;99.90;;;;;;5006698;28;20497;-88
2023/06/10 08:45:18;;;;;;;0.35;0.30;;;29.30;99.90;;;;;;5007262;28;20890;-87
2023/06/10 08:47:46;;;;;;;1.15;0.65;;;28.60;99.90;;;;;;5006947;28;20054;-88
2023/06/10 08:50:12;;;;;;;0.93;0.55;;;28.40;99.90;;;;;;5005324;28;20053;-88
2023/06/10 08:52:43;;;;;;;0.55;0.38;;;28.00;99.90;;;;;;5006515;28;20054;-87
2023/06/10 08:55:08;;;;;;;0.60;0.30;;;28.30;99.90;;;;;;5005406;28;20536;-87
2023/06/10 08:57:35;;;;;;;0.38;0.35;;;29.90;99.90;;;;;;5005412;28;20054;-88
2023/06/10 09:00:02;;;;;;;1.50;0.70;;;29.60;99.90;;;;;;5005354;28;20069;-88
2023/06/10 09:02:28;;;;;;;0.35;0.25;;;30.40;99.90;;;;;;5005290;28;20125;-88
2023/06/10 09:04:56;;;;;;;0.85;0.52;;;29.80;99.90;;;;;;5007565;28;20477;-87
2023/06/10 09:07:23;;;;;;;0.00;0.00;;;30.80;99.90;;;;;;5006941;28;20061;-88
2023/06/10 09:09:49;;;;;;;0.32;0.32;;;30.00;99.90;;;;;;5006816;28;20038;-87
2023/06/10 09:12:15;;;;;;;1.83;1.33;;;30.70;99.90;;;;;;5006543;28;20598;-88
2023/06/10 09:14:42;;;;;;;3.90;0.68;;;30.90;99.90;;;;;;5006818;28;20056;-88
2023/06/10 09:17:08;;;;;;;0.22;0.22;;;31.60;99.90;;;;;;5007735;28;20821;-88
2023/06/10 09:19:36;;;;;;;0.20;0.20;;;32.80;99.90;;;;;;5009894;28;20045;-88
2023/06/10 09:22:02;;;;;;;1.15;0.82;;;32.40;99.90;;;;;;5025139;28;20519;-88
2023/06/10 09:24:28;;;;;;;1.83;0.75;;;31.80;99.90;;;;;;5009629;28;20050;-88
2023/06/10 09:27:08;;;;;;;0.10;0.10;;;32.00;99.90;;;;;;5009922;28;20083;-88
2023/06/10 09:29:53;;;;;;;1.75;0.90;;;31.80;99.90;;;;;;5009613;28;20155;-88
2023/06/10 09:32:19;;;;;;;0.47;0.20;;;30.70;99.90;;;;;;5010048;28;20054;-88
2023/06/10 09:34:45;;;;;;;0.30;0.20;;;31.00;99.90;;;;;;5010005;28;20976;-88
2023/06/10 09:37:13;;;;;;;0.90;0.73;;;31.20;99.90;;;;;;5009673;28;20120;-88
2023/06/10 09:39:39;;;;;;;5.55;1.30;;;30.20;99.90;;;;;;5010038;28;20143;-88
2023/06/10 09:42:25;;;;;;;7.63;1.38;;;31.30;99.90;;;;;;5010259;28;20061;-88
2023/06/10 09:44:52;;;;;;;2.08;0.65;;;31.80;99.90;;;;;;5009548;28;20058;-88
2023/06/10 09:47:22;;;;;;;0.38;0.22;;;32.10;99.90;;;;;;5009256;28;20053;-88
2023/06/10 09:49:49;;;;;;;0.35;0.28;;;32.50;99.90;;;;;;5009435;28;20058;-88
2023/06/10 09:52:22;;;;;;;0.28;0.28;;;32.90;99.90;;;;;;5011633;28;20074;-88
2023/06/10 09:54:48;;;;;;;0.65;0.45;;;32.50;99.90;;;;;;5009451;28;20080;-88
2023/06/10 09:57:16;;;;;;;1.90;1.13;;;32.70;99.90;;;;;;5007790;28;20049;-88
2023/06/10 09:59:42;;;;;;;0.40;0.20;;;32.40;99.90;;;;;;5009843;28;20049;-88
2023/06/10 10:02:14;;;;;;;0.25;0.25;;;32.30;99.90;;;;;;5009351;28;20053;-88
2023/06/10 10:04:40;;;;;;;3.97;0.73;;;31.90;99.90;;;;;;5009591;28;20125;-88
2023/06/10 10:07:07;;;;;;;0.30;0.30;;;31.40;99.90;;;;;;5008635;28;20149;-88
2023/06/10 10:09:33;;;;;;;12.82;1.55;;;30.70;99.90;;;;;;5009088;28;20450;-88
2023/06/10 10:12:01;;;;;;;0.30;0.20;;;30.80;99.90;;;;;;5009095;28;20133;-86
2023/06/10 10:14:28;;;;;;;0.63;0.45;;;30.80;99.90;;;;;;5007406;28;20098;-86
2023/06/10 10:16:56;;;;;;;1.08;0.50;;;30.20;92.30;;;;;;5007638;28;20053;-86
2023/06/10 10:19:27;;;;;;;0.20;0.03;;;29.70;88.60;;;;;;5007174;28;20069;-86
2023/06/10 10:21:57;;;;;;;1.38;0.80;;;29.40;88.20;;;;;;5007476;28;20046;-86
2023/06/10 10:24:36;;;;;;;0.20;0.20;;;29.20;86.00;;;;;;5008886;28;20103;-86
2023/06/10 10:27:08;;;;;;;0.38;0.30;;;29.30;93.20;;;;;;5008932;28;20054;-86
2023/06/10 10:29:39;;;;;;;0.45;0.35;;;29.50;93.20;;;;;;5008553;28;20488;-86
2023/06/10 10:32:07;;;;;;;0.40;0.40;;;29.30;75.10;;;;;;5008874;28;20146;-86
2023/06/10 10:35:01;;;;;;;0.90;0.63;;;28.80;63.90;;;;;;5008468;28;20916;-86
2023/06/10 10:37:27;;;;;;;0.90;0.63;;;28.80;73.10;;;;;;5008468;28;20517;-86
2023/06/10 10:39:54;;;;;;;1.40;0.52;;;28.90;69.80;;;;;;5006934;28;20496;-88
2023/06/10 10:42:20;;;;;;;0.47;0.47;;;29.20;78.40;;;;;;5007241;28;20665;-88
2023/06/10 10:44:48;;;;;;;2.38;0.90;;;29.30;84.90;;;;;;5008229;28;20050;-88
2023/06/10 10:47:18;;;;;;;0.10;0.10;;;29.50;91.80;;;;;;5008524;28;20046;-88
2023/06/10 10:49:45;;;;;;;1.88;0.90;;;29.40;90.60;;;;;;5006812;28;20072;-88
2023/06/10 10:52:12;;;;;;;0.25;0.08;;;29.90;93.10;;;;;;5008833;28;20054;-88
2023/06/10 10:54:43;;;;;;;0.10;0.10;;;30.20;83.10;;;;;;5008552;28;20176;-88
2023/06/10 10:57:20;;;;;;;0.65;0.63;;;30.30;89.80;;;;;;5007142;28;20500;-88
2023/06/10 10:59:48;;;;;;;0.22;0.05;;;30.40;88.70;;;;;;5008226;28;20069;-88
2023/06/10 11:02:18;;;;;;;0.90;0.50;;;30.60;96.60;;;;;;5008093;28;20101;-88
2023/06/10 11:04:48;;;;;;;2.72;0.47;;;30.40;72.40;;;;;;5008447;28;20177;-88
2023/06/10 11:07:19;;;;;;;5.57;1.40;;;29.70;49.70;;;;;;5007650;28;20412;-88
2023/06/10 11:10:28;;;;;;;0.52;0.28;;;30.20;90.10;;;;;;5008476;28;20068;-88
2023/06/10 11:12:54;;;;;;;0.28;0.22;;;30.40;82.90;;;;;;4988382;28;20066;-88
2023/06/10 11:15:23;;;;;;;0.20;0.20;;;30.50;91.30;;;;;;5008198;28;20050;-88
2023/06/10 11:18:11;;;;;;;0.35;0.28;;;30.80;99.90;;;;;;5007974;28;20061;-88
2023/06/10 11:20:48;;;;;;;0.57;0.47;;;30.90;99.90;;;;;;5008206;28;20054;-88
2023/06/10 11:23:29;;;;;;;0.20;0.20;;;30.80;99.60;;;;;;5006151;28;20097;-88
2023/06/10 11:26:14;;;;;;;0.80;0.43;;;30.70;96.90;;;;;;5007262;28;20061;-88
2023/06/10 11:28:42;;;;;;;0.10;0.10;;;30.60;95.10;;;;;;5007520;28;20110;-88
2023/06/10 11:31:19;;;;;;;0.08;0.08;;;30.80;87.80;;;;;;5005551;28;20057;-88
2023/06/10 11:33:45;;;;;;;0.20;0.20;;;31.20;98.00;;;;;;5007593;28;20354;-86
2023/06/10 11:36:11;;;;;;;0.45;0.45;;;31.80;99.90;;;;;;5007350;28;20148;-86
2023/06/10 11:38:37;;;;;;;0.68;0.52;;;32.20;98.80;;;;;;5007191;28;20860;-86
2023/06/10 11:41:03;;;;;;;0.90;0.82;;;32.30;65.80;;;;;;5004980;28;20050;-86
2023/06/10 11:43:30;;;;;;;0.90;0.40;;;32.90;99.90;;;;;;5006887;28;20785;-86
2023/06/10 11:45:56;;;;;;;0.80;0.55;;;33.80;99.90;;;;;;5007174;28;20141;-86
2023/06/10 11:48:22;;;;;;;0.32;0.20;;;34.40;99.90;;;;;;5006566;28;20133;-86
2023/06/10 11:50:47;;;;;;;0.20;0.20;;;34.70;99.90;;;;;;5007028;28;20140;-86
2023/06/10 11:53:13;;;;;;;1.52;0.45;;;35.10;99.90;;;;;;5007043;28;20088;-86
2023/06/10 11:55:45;;;;;;;2.47;0.88;;;35.50;99.90;;;;;;5007514;28;20133;-86
2023/06/10 11:58:21;;;;;;;0.52;0.43;;;36.00;99.90;;;;;;5007313;28;20050;-87
2023/06/10 12:00:50;;;;;;;0.10;0.10;;;36.30;99.90;;;;;;5007266;28;20514;-86
2023/06/10 12:03:19;;;;;;;0.25;0.22;;;36.50;47.40;;;;;;5007044;28;20111;-86
2023/06/10 12:06:03;;;;;;;0.70;0.55;;;36.20;42.10;;;;;;5007347;28;20653;-86
2023/06/10 12:08:30;;;;;;;0.40;0.20;;;35.90;27.10;;;;;;5024469;28;20143;-86
2023/06/10 12:10:57;;;;;;;1.95;1.17;;;36.10;16.20;;;;;;5026520;28;20072;-86
2023/06/10 12:13:23;;;;;;;1.20;0.57;;;36.30;18.10;;;;;;5029043;28;20136;-86
2023/06/10 12:15:50;;;;;;;1.52;0.70;;;36.30;18.80;;;;;;5029575;28;20070;-86
2023/06/10 12:18:20;;;;;;;1.65;0.65;;;35.90;12.30;;;;;;5023600;28;20065;-86
2023/06/10 12:20:46;;;;;;;0.45;0.43;;;35.70;1.00;;;;;;5028379;28;20042;-86
2023/06/10 12:23:12;;;;;;;0.73;0.55;;;35.90;1.00;;;;;;5029493;28;20050;-87
2023/06/10 12:25:39;;;;;;;1.02;0.80;;;35.70;1.00;;;;;;5029934;28;20068;-87
2023/06/10 12:28:06;;;;;;;0.40;0.40;;;36.00;1.00;;;;;;5016186;28;20250;-87
2023/06/10 12:30:32;;;;;;;0.15;0.15;;;36.20;4.20;;;;;;5009547;28;20054;-87
2023/06/10 12:32:58;;;;;;;0.90;0.35;;;36.40;1.00;;;;;;5009247;28;20046;-86
2023/06/10 12:35:26;;;;;;;0.32;0.30;;;36.40;3.30;;;;;;5008080;28;20058;-86
2023/06/10 12:38:03;;;;;;;0.15;0.13;;;36.80;1.00;;;;;;5008267;28;20077;-88
2023/06/10 12:40:37;;;;;;;0.55;0.38;;;36.30;1.00;;;;;;5006728;28;20050;-89
2023/06/10 12:43:03;;;;;;;;;;;36.10;1.00;;;;;;5011049;28;20056;-89
2023/06/10 12:45:29;;;;;;;0.52;0.28;;;36.00;1.00;;;;;;5023449;28;20354;-88
2023/06/10 12:48:09;;;;;;;0.47;0.47;;;35.90;1.00;;;;;;5009030;28;20141;-89
2023/06/10 12:50:37;;;;;;;1.88;0.93;;;35.60;1.00;;;;;;5009561;28;20504;-89